createdAt,value
2017-10-24T00:02:29.579Z,19.42
2017-10-24T00:05:03.888Z,19.05
2017-10-24T00:07:38.245Z,15.70
2017-10-24T00:10:12.756Z,15.20
2017-10-24T00:12:47.081Z,13.13
2017-10-24T00:15:21.513Z,13.55
2017-10-24T00:17:56.087Z,13.50
2017-10-24T00:20:30.544Z,13.65
2017-10-24T00:23:04.971Z,17.45
2017-10-24T00:25:39.275Z,13.40
2017-10-24T00:28:13.726Z,12.05
2017-10-24T00:30:48.188Z,14.85
2017-10-24T00:33:22.570Z,14.32
2017-10-24T00:35:56.933Z,14.02
2017-10-24T00:38:31.386Z,14.43
2017-10-24T00:41:05.796Z,20.40
2017-10-24T00:43:41.040Z,20.23
2017-10-24T00:46:15.505Z,19.92
2017-10-24T00:48:49.868Z,23.45
2017-10-24T00:51:24.296Z,19.48
2017-10-24T00:53:58.685Z,14.35
2017-10-24T00:56:33.819Z,20.42
2017-10-24T00:59:08.244Z,24.67
2017-10-24T01:01:42.691Z,17.75
2017-10-24T01:04:17.022Z,19.17
2017-10-24T01:06:51.480Z,19.85
2017-10-24T01:09:25.984Z,18.02
2017-10-24T01:12:01.257Z,16.83
2017-10-24T01:14:35.623Z,23.12
2017-10-24T01:17:10.708Z,18.83
2017-10-24T01:19:45.041Z,21.92
2017-10-24T01:22:19.524Z,21.60
2017-10-24T01:24:53.920Z,22.95
2017-10-24T01:27:28.399Z,22.02
2017-10-24T01:30:02.947Z,20.95
2017-10-24T01:32:37.390Z,24.35
2017-10-24T01:35:11.753Z,26.95
2017-10-24T01:37:46.207Z,21.75
2017-10-24T01:40:20.557Z,20.17
2017-10-24T01:42:55.005Z,24.60
2017-10-24T01:45:29.488Z,29.05
2017-10-24T01:48:03.920Z,28.02
2017-10-24T01:50:38.265Z,22.02
2017-10-24T01:53:12.760Z,23.17
2017-10-24T01:55:47.299Z,22.90
2017-10-24T01:58:21.771Z,20.92
2017-10-24T02:00:56.917Z,19.12
2017-10-24T02:03:31.285Z,30.00
2017-10-24T02:06:05.614Z,24.92
2017-10-24T02:08:40.096Z,29.70
2017-10-24T02:11:14.495Z,24.73
2017-10-24T02:13:48.964Z,28.85
2017-10-24T02:16:23.504Z,24.52
2017-10-24T02:18:57.829Z,23.52
2017-10-24T02:21:33.057Z,28.42
2017-10-24T02:24:08.273Z,27.13
2017-10-24T02:26:42.614Z,23.85
2017-10-24T02:29:17.041Z,24.58
2017-10-24T02:31:51.485Z,25.52
2017-10-24T02:34:25.986Z,32.85
2017-10-24T02:37:00.573Z,28.98
2017-10-24T02:39:35.057Z,27.65
2017-10-24T02:42:09.347Z,30.35
2017-10-24T02:44:43.886Z,26.62
2017-10-24T02:47:19.013Z,24.63
2017-10-24T02:49:53.354Z,31.73
2017-10-24T02:52:27.850Z,26.05
2017-10-24T02:55:02.197Z,24.63
2017-10-24T02:57:36.567Z,25.05
2017-10-24T03:00:10.865Z,26.45
2017-10-24T03:02:46.032Z,25.85
2017-10-24T03:05:20.544Z,23.45
2017-10-24T03:07:54.884Z,27.67
2017-10-24T03:10:29.192Z,27.10
2017-10-24T03:13:03.539Z,23.30
2017-10-24T03:15:37.994Z,28.42
2017-10-24T03:18:12.416Z,26.83
2017-10-24T03:20:46.923Z,26.02
2017-10-24T03:23:21.393Z,26.70
2017-10-24T03:25:55.928Z,26.05
2017-10-24T03:28:30.406Z,27.73
2017-10-24T03:31:04.717Z,25.60
2017-10-24T03:33:39.069Z,37.20
2017-10-24T03:36:13.556Z,36.10
2017-10-24T03:38:47.904Z,31.02
2017-10-24T03:41:22.419Z,30.27
2017-10-24T03:43:56.795Z,29.65
2017-10-24T03:46:32.052Z,29.30
2017-10-24T03:49:06.660Z,28.45
2017-10-24T03:51:41.938Z,33.33
2017-10-24T03:54:17.052Z,30.42
2017-10-24T03:56:51.401Z,32.25
2017-10-24T03:59:25.803Z,31.12
2017-10-24T04:02:00.212Z,33.65
2017-10-24T04:04:34.620Z,29.55
2017-10-24T04:07:09.059Z,27.65
2017-10-24T04:09:43.616Z,28.62
2017-10-24T04:12:17.890Z,26.98
2017-10-24T04:14:52.279Z,31.73
2017-10-24T04:17:27.570Z,33.05
2017-10-24T04:20:02.056Z,36.55
2017-10-24T04:22:36.527Z,36.15
2017-10-24T04:25:11.643Z,28.98
2017-10-24T04:27:46.014Z,27.87
2017-10-24T04:30:20.376Z,37.45
2017-10-24T04:32:54.852Z,35.47
2017-10-24T04:35:29.311Z,33.15
2017-10-24T04:38:03.812Z,27.85
2017-10-24T04:40:38.980Z,35.97
2017-10-24T04:43:14.089Z,32.83
2017-10-24T04:45:48.560Z,33.35
2017-10-24T04:48:23.025Z,35.05
2017-10-24T04:50:57.449Z,35.17
2017-10-24T04:53:31.883Z,32.25
2017-10-24T04:56:06.985Z,33.10
2017-10-24T04:58:41.648Z,38.35
2017-10-24T05:01:16.162Z,40.38
2017-10-24T05:03:50.710Z,35.33
2017-10-24T05:06:25.188Z,37.95
2017-10-24T05:08:59.527Z,35.00
2017-10-24T05:11:34.011Z,35.67
2017-10-24T05:14:08.362Z,35.90
2017-10-24T05:16:42.775Z,36.75
2017-10-24T05:19:17.291Z,39.13
2017-10-24T05:21:52.403Z,43.87
2017-10-24T05:24:26.909Z,43.47
2017-10-24T05:27:01.483Z,36.60
2017-10-24T05:29:35.868Z,41.45
2017-10-24T05:32:10.288Z,37.58
2017-10-24T05:34:44.783Z,35.30
2017-10-24T05:37:19.228Z,41.40
2017-10-24T05:39:53.706Z,42.83
2017-10-24T05:42:28.303Z,35.20
2017-10-24T05:45:02.731Z,35.45
2017-10-24T05:47:37.368Z,37.85
2017-10-24T05:50:11.904Z,40.00
2017-10-24T05:52:46.408Z,36.42
2017-10-24T05:55:20.724Z,36.65
2017-10-24T05:57:55.168Z,33.05
2017-10-24T06:00:29.887Z,32.55
2017-10-24T06:03:04.490Z,30.30
2017-10-24T06:05:38.941Z,41.65
2017-10-24T06:08:13.398Z,37.47
2017-10-24T06:10:47.844Z,39.00
2017-10-24T06:13:22.362Z,34.05
2017-10-24T06:15:56.778Z,37.97
2017-10-24T06:18:31.295Z,34.53
2017-10-24T06:21:05.878Z,33.70
2017-10-24T06:23:40.335Z,34.58
2017-10-24T06:26:14.758Z,38.40
2017-10-24T06:28:49.260Z,34.92
2017-10-24T06:31:23.922Z,31.42
2017-10-24T06:33:58.503Z,31.17
2017-10-24T06:36:33.038Z,42.78
2017-10-24T06:39:07.606Z,36.72
2017-10-24T06:41:42.133Z,32.10
2017-10-24T06:44:16.624Z,35.13
2017-10-24T06:46:51.873Z,41.08
2017-10-24T06:49:26.220Z,33.13
2017-10-24T06:52:00.696Z,41.55
2017-10-24T06:54:35.204Z,29.70
2017-10-24T06:57:09.547Z,44.17
2017-10-24T06:59:44.782Z,39.42
2017-10-24T07:02:19.252Z,40.30
2017-10-24T07:04:53.629Z,44.53
2017-10-24T07:07:27.998Z,38.22
2017-10-24T07:10:02.346Z,36.05
2017-10-24T07:12:36.864Z,44.78
2017-10-24T07:15:11.283Z,39.67
2017-10-24T07:17:45.656Z,42.53
2017-10-24T07:20:20.176Z,44.60
2017-10-24T07:22:56.607Z,40.95
2017-10-24T07:25:31.121Z,37.10
2017-10-24T07:28:05.495Z,35.20
2017-10-24T07:30:39.899Z,37.95
2017-10-24T07:33:14.239Z,38.10
2017-10-24T07:35:48.609Z,35.33
2017-10-24T07:38:23.815Z,38.00
2017-10-24T07:40:58.257Z,41.22
2017-10-24T07:43:32.723Z,39.63
2017-10-24T07:46:07.197Z,36.40
2017-10-24T07:48:42.508Z,31.92
2017-10-24T07:51:16.898Z,36.65
2017-10-24T07:53:51.478Z,31.83
2017-10-24T07:56:25.983Z,33.67
2017-10-24T07:59:00.476Z,33.33
2017-10-24T08:01:34.973Z,30.17
2017-10-24T08:04:09.456Z,32.42
2017-10-24T08:06:43.811Z,31.33
2017-10-24T08:09:18.195Z,32.88
2017-10-24T08:11:52.821Z,34.53
2017-10-24T08:14:27.349Z,31.87
2017-10-24T08:17:01.815Z,35.50
2017-10-24T08:19:36.239Z,34.05
2017-10-24T08:22:10.607Z,35.40
2017-10-24T08:24:45.964Z,36.33
2017-10-24T08:27:20.476Z,32.00
2017-10-24T08:29:54.932Z,28.05
2017-10-24T08:32:30.228Z,31.75
2017-10-24T08:35:04.565Z,32.83
2017-10-24T08:37:39.056Z,35.13
2017-10-24T08:40:14.280Z,31.80
2017-10-24T08:42:48.700Z,31.08
2017-10-24T08:45:23.044Z,30.12
2017-10-24T08:47:57.571Z,30.83
2017-10-24T08:50:32.080Z,29.20
2017-10-24T08:53:06.413Z,34.78
2017-10-24T08:55:40.736Z,30.10
2017-10-24T08:58:15.115Z,30.37
2017-10-24T09:00:49.400Z,27.85
2017-10-24T09:03:23.785Z,30.60
2017-10-24T09:09:09.462Z,23.52
2017-10-24T09:11:48.443Z,30.35
2017-10-24T09:14:24.755Z,28.25
2017-10-24T09:16:59.845Z,28.77
2017-10-24T09:19:57.391Z,29.08
2017-10-24T09:22:31.840Z,32.88
2017-10-24T09:25:06.993Z,30.15
2017-10-24T09:27:41.396Z,31.42
2017-10-24T09:30:16.604Z,26.52
2017-10-24T09:32:51.013Z,24.83
2017-10-24T09:35:25.429Z,24.92
2017-10-24T09:37:59.923Z,28.15
2017-10-24T09:40:34.378Z,30.37
2017-10-24T09:43:08.851Z,23.20
2017-10-24T09:45:44.124Z,26.42
2017-10-24T09:48:18.508Z,28.15
2017-10-24T09:51:05.069Z,27.45
2017-10-24T09:53:39.560Z,28.55
2017-10-24T09:59:35.651Z,26.48
2017-10-24T10:02:10.176Z,30.08
2017-10-24T10:04:44.584Z,28.20
2017-10-24T10:07:19.252Z,29.02
2017-10-24T10:09:53.781Z,27.17
2017-10-24T10:12:28.340Z,26.15
2017-10-24T10:15:02.666Z,24.05
2017-10-24T10:17:36.981Z,25.92
2017-10-24T10:20:11.555Z,25.98
2017-10-24T10:22:46.711Z,24.08
2017-10-24T10:25:21.055Z,23.10
2017-10-24T10:27:55.397Z,25.48
2017-10-24T10:30:29.724Z,24.60
2017-10-24T10:33:04.156Z,22.83
2017-10-24T10:35:38.554Z,29.05
2017-10-24T10:38:13.053Z,23.83
2017-10-24T10:40:47.512Z,23.35
2017-10-24T10:43:22.044Z,24.37
2017-10-24T10:45:56.589Z,26.00
2017-10-24T10:48:30.994Z,25.65
2017-10-24T10:51:05.452Z,22.27
2017-10-24T10:53:39.828Z,26.85
2017-10-24T10:56:14.206Z,23.48
2017-10-24T10:58:48.700Z,24.90
2017-10-24T11:01:23.827Z,25.70
2017-10-24T11:03:59.075Z,27.45
2017-10-24T11:06:33.429Z,23.95
2017-10-24T11:09:07.844Z,33.33
2017-10-24T11:11:42.313Z,27.37
2017-10-24T11:14:16.732Z,23.30
2017-10-24T11:16:51.032Z,25.23
2017-10-24T11:19:25.471Z,34.90
2017-10-24T11:21:59.971Z,26.58
2017-10-24T11:24:34.390Z,25.60
2017-10-24T11:27:08.869Z,27.33
2017-10-24T11:29:43.286Z,30.73
2017-10-24T11:32:17.629Z,24.83
2017-10-24T11:34:52.165Z,25.55
2017-10-24T11:37:26.623Z,30.25
2017-10-24T11:40:00.995Z,22.87
2017-10-24T11:42:36.392Z,22.00
2017-10-24T11:45:10.709Z,28.00
2017-10-24T11:47:45.786Z,30.00
2017-10-24T11:50:20.361Z,25.85
2017-10-24T11:52:55.162Z,23.15
2017-10-24T11:55:29.616Z,27.33
2017-10-24T11:58:04.060Z,25.65
2017-10-24T12:00:38.412Z,26.58
2017-10-24T12:03:12.773Z,22.13
2017-10-24T12:05:47.184Z,24.60
2017-10-24T12:08:21.731Z,20.83
2017-10-24T12:10:56.215Z,27.98
2017-10-24T12:13:31.523Z,23.98
2017-10-24T12:16:05.868Z,20.35
2017-10-24T12:18:40.191Z,27.60
2017-10-24T12:21:14.738Z,28.42
2017-10-24T12:23:49.254Z,24.35
2017-10-24T12:26:23.738Z,29.33
2017-10-24T12:28:59.077Z,29.05
2017-10-24T12:31:33.425Z,33.60
2017-10-24T12:34:07.767Z,27.73
2017-10-24T12:36:42.143Z,30.62
2017-10-24T12:39:17.348Z,29.98
2017-10-24T12:41:57.284Z,28.80
2017-10-24T12:44:32.695Z,30.02
2017-10-24T12:47:08.512Z,33.60
2017-10-24T12:52:42.440Z,27.20
2017-10-24T12:55:16.772Z,31.52
2017-10-24T12:57:53.100Z,22.00
2017-10-24T13:00:27.505Z,23.50
2017-10-24T13:03:01.966Z,29.67
2017-10-24T13:05:36.420Z,25.35
2017-10-24T13:08:10.849Z,27.45
2017-10-24T13:10:45.137Z,24.50
2017-10-24T13:13:19.563Z,26.05
2017-10-24T13:15:54.071Z,27.33
2017-10-24T13:18:28.572Z,21.90
2017-10-24T13:21:03.048Z,30.42
2017-10-24T13:23:37.545Z,23.10
2017-10-24T13:26:12.000Z,20.27
2017-10-24T13:28:46.343Z,22.45
2017-10-24T13:31:21.231Z,21.65
2017-10-24T13:33:55.703Z,20.52
2017-10-24T13:36:30.213Z,19.10
2017-10-24T13:39:04.653Z,22.95
2017-10-24T13:41:39.863Z,17.25
2017-10-24T13:44:14.280Z,22.25
2017-10-24T13:46:48.711Z,16.35
2017-10-24T13:49:23.211Z,16.30
2017-10-24T13:51:57.672Z,18.98
2017-10-24T13:54:32.165Z,19.92
2017-10-24T13:57:06.492Z,11.23
2017-10-24T13:59:41.595Z,13.88
2017-10-24T14:02:16.064Z,16.15
2017-10-24T14:04:56.785Z,18.95
2017-10-24T14:07:36.801Z,16.87
2017-10-24T14:10:18.638Z,16.15
2017-10-24T14:12:53.064Z,10.15
2017-10-24T14:15:28.970Z,13.98
2017-10-24T14:18:04.691Z,11.07
2017-10-24T14:20:40.579Z,10.32
2017-10-24T14:23:15.112Z,12.65
2017-10-24T14:25:50.312Z,14.82
2017-10-24T14:28:24.700Z,10.93
2017-10-24T14:30:59.171Z,14.13
2017-10-24T14:33:33.696Z,9.43
2017-10-24T14:36:08.061Z,11.93
2017-10-24T14:38:42.605Z,9.88
2017-10-24T14:41:17.890Z,14.00
2017-10-24T14:43:52.362Z,9.32
2017-10-24T14:46:26.940Z,10.45
2017-10-24T14:49:01.387Z,10.00
2017-10-24T14:51:35.820Z,9.15
2017-10-24T14:54:10.350Z,9.40
2017-10-24T14:56:44.791Z,11.25
2017-10-24T14:59:19.235Z,12.68
2017-10-24T15:01:53.760Z,10.55
2017-10-24T15:04:28.152Z,12.23
2017-10-24T15:07:02.605Z,12.82
2017-10-24T15:09:37.703Z,11.98
2017-10-24T15:12:12.183Z,11.90
2017-10-24T15:14:47.407Z,11.65
2017-10-24T15:17:21.834Z,11.32
2017-10-24T15:19:57.526Z,14.55
2017-10-24T15:22:31.979Z,11.85
2017-10-24T15:25:06.427Z,13.00
2017-10-24T15:27:40.936Z,14.10
2017-10-24T15:30:15.484Z,12.85
2017-10-24T15:32:49.900Z,12.50
2017-10-24T15:35:25.033Z,15.20
2017-10-24T15:37:59.463Z,17.45
2017-10-24T15:40:34.142Z,13.77
2017-10-24T15:43:08.572Z,14.30
2017-10-24T15:45:43.194Z,17.85
2017-10-24T15:48:17.607Z,14.45
2017-10-24T15:50:53.425Z,17.42
2017-10-24T15:53:27.862Z,20.20
2017-10-24T15:56:02.692Z,21.48
2017-10-24T15:58:37.187Z,18.37
2017-10-24T16:01:11.614Z,16.67
2017-10-24T16:03:46.128Z,21.92
2017-10-24T16:06:20.644Z,21.80
2017-10-24T16:08:55.576Z,22.70
2017-10-24T16:11:29.908Z,24.50
2017-10-24T16:14:05.298Z,24.50
2017-10-24T16:16:39.849Z,26.10
2017-10-24T16:19:14.449Z,25.50
2017-10-24T16:21:49.811Z,26.75
2017-10-24T16:24:24.302Z,20.88
2017-10-24T16:26:58.808Z,22.50
2017-10-24T16:29:33.379Z,27.25
2017-10-24T16:32:07.963Z,26.80
2017-10-24T16:34:42.410Z,22.55
2017-10-24T16:37:16.782Z,26.37
2017-10-24T16:39:51.190Z,28.33
2017-10-24T16:42:25.680Z,28.20
2017-10-24T16:45:00.992Z,26.08
2017-10-24T16:47:36.177Z,28.25
2017-10-24T16:50:10.562Z,25.80
2017-10-24T16:52:44.974Z,27.83
2017-10-24T16:55:19.443Z,35.85
2017-10-24T16:57:54.851Z,30.77
2017-10-24T17:00:29.282Z,29.98
2017-10-24T17:03:03.713Z,35.72
2017-10-24T17:05:38.167Z,34.40
2017-10-24T17:08:14.339Z,27.75
2017-10-24T17:10:48.703Z,29.40
2017-10-24T17:13:23.060Z,29.80
2017-10-24T17:15:57.647Z,33.03
2017-10-24T17:18:32.784Z,31.42
2017-10-24T17:21:07.341Z,31.80
2017-10-24T17:23:41.703Z,31.80
2017-10-24T17:26:16.775Z,36.95
2017-10-24T17:28:51.258Z,40.03
2017-10-24T17:31:26.837Z,36.50
2017-10-24T17:34:01.444Z,33.63
2017-10-24T17:36:35.748Z,37.78
2017-10-24T17:39:10.242Z,38.50
2017-10-24T17:41:44.838Z,34.38
2017-10-24T17:44:20.305Z,35.45
2017-10-24T17:46:54.769Z,31.85
2017-10-24T17:49:30.455Z,33.53
2017-10-24T17:52:05.107Z,37.47
2017-10-24T17:54:39.929Z,40.33
2017-10-24T17:57:14.529Z,33.50
2017-10-24T17:59:49.135Z,41.20
2017-10-24T18:02:23.850Z,31.75
2017-10-24T18:04:58.639Z,33.42
2017-10-24T18:07:35.240Z,27.95
2017-10-24T18:10:09.948Z,26.20
2017-10-24T18:12:46.900Z,30.90
2017-10-24T18:15:21.499Z,32.78
2017-10-24T18:17:57.013Z,35.60
2017-10-24T18:20:32.703Z,32.75
2017-10-24T18:23:08.703Z,32.10
2017-10-24T18:25:44.533Z,31.48
2017-10-24T18:28:19.772Z,30.00
2017-10-24T18:30:54.618Z,34.72
2017-10-24T18:33:29.566Z,41.95
2017-10-24T18:36:04.464Z,37.25
2017-10-24T18:38:39.414Z,39.22
2017-10-24T18:41:14.325Z,43.78
2017-10-24T18:43:50.032Z,36.90
2017-10-24T18:46:24.776Z,30.60
2017-10-24T18:48:59.587Z,46.35
2017-10-24T18:51:34.559Z,32.50
2017-10-24T18:54:09.247Z,35.60
2017-10-24T18:56:44.070Z,35.65
2017-10-24T18:59:19.004Z,40.20
2017-10-24T19:01:53.856Z,40.97
2017-10-24T19:04:28.799Z,41.30
2017-10-24T19:07:03.714Z,36.03
2017-10-24T19:09:38.482Z,42.13
2017-10-24T19:12:13.418Z,43.45
2017-10-24T19:14:48.221Z,41.22
2017-10-24T19:17:23.476Z,39.63
2017-10-24T19:19:59.234Z,49.85
2017-10-24T19:22:34.204Z,47.83
2017-10-24T19:25:09.700Z,47.70
2017-10-24T19:27:46.974Z,47.62
2017-10-24T19:30:21.909Z,45.55
2017-10-24T19:32:57.140Z,45.00
2017-10-24T19:35:32.965Z,47.42
2017-10-24T19:38:07.914Z,39.38
2017-10-24T19:40:42.803Z,36.58
2017-10-24T19:43:17.713Z,45.65
2017-10-24T19:48:56.474Z,34.85
2017-10-24T19:51:31.220Z,33.60
2017-10-24T19:54:06.111Z,34.55
2017-10-24T19:56:42.070Z,26.87
2017-10-24T19:59:16.904Z,30.92
2017-10-24T20:01:51.753Z,27.08
2017-10-24T20:04:27.142Z,27.62
2017-10-24T20:07:02.001Z,28.73
2017-10-24T20:09:37.578Z,29.60
2017-10-24T20:12:12.457Z,34.13
2017-10-24T20:14:48.830Z,25.77
2017-10-24T20:17:24.422Z,24.50
2017-10-24T20:20:00.084Z,22.15
2017-10-24T20:22:34.989Z,16.27
2017-10-24T20:25:09.711Z,15.48
2017-10-24T20:27:44.461Z,15.40
2017-10-24T20:30:19.357Z,18.33
2017-10-24T20:32:54.301Z,19.62
2017-10-24T20:35:30.422Z,13.60
2017-10-24T20:38:05.334Z,15.48
2017-10-24T20:40:41.020Z,17.73
2017-10-24T20:43:16.003Z,14.30
2017-10-24T20:45:50.638Z,12.57
2017-10-24T20:48:25.619Z,15.30
2017-10-24T20:51:00.337Z,13.23
2017-10-24T20:53:35.054Z,16.02
2017-10-24T20:56:09.746Z,14.07
2017-10-24T20:58:44.505Z,10.77
2017-10-24T21:01:19.340Z,11.20
2017-10-24T21:03:55.742Z,11.27
2017-10-24T21:06:30.242Z,8.35
2017-10-24T21:09:05.539Z,12.00
2017-10-24T21:11:40.020Z,13.80
2017-10-24T21:14:15.429Z,12.50
2017-10-24T21:16:50.579Z,10.85
2017-10-24T21:19:24.892Z,12.45
2017-10-24T21:21:59.344Z,14.07
2017-10-24T21:24:33.654Z,11.88
2017-10-24T21:27:08.073Z,6.40
2017-10-24T21:29:42.426Z,10.40
2017-10-24T21:32:17.530Z,9.55
2017-10-24T21:34:52.192Z,13.00
2017-10-24T21:37:26.740Z,17.98
2017-10-24T21:40:02.012Z,10.55
2017-10-24T21:42:36.373Z,12.37
2017-10-24T21:45:10.723Z,8.52
2017-10-24T21:47:45.161Z,11.73
2017-10-24T21:50:19.547Z,14.05
2017-10-24T21:52:54.794Z,13.13
2017-10-24T21:55:30.092Z,18.87
2017-10-24T21:58:04.472Z,17.00
2017-10-24T22:00:50.686Z,20.08
2017-10-24T22:03:25.140Z,23.50
2017-10-24T22:06:00.448Z,24.85
2017-10-24T22:08:34.771Z,30.37
2017-10-24T22:11:09.168Z,21.92
2017-10-24T22:13:43.579Z,24.35
2017-10-24T22:16:18.028Z,26.20
2017-10-24T22:18:52.421Z,34.40
2017-10-24T22:21:26.963Z,35.03
2017-10-24T22:24:01.404Z,30.67
2017-10-24T22:26:36.008Z,27.25
2017-10-24T22:29:10.443Z,20.92
2017-10-24T22:31:45.259Z,33.53
2017-10-24T22:34:19.639Z,27.55
2017-10-24T22:36:54.118Z,21.60
2017-10-24T22:39:30.561Z,24.60
2017-10-24T22:42:07.668Z,18.70
2017-10-24T22:44:43.485Z,29.95
2017-10-24T22:47:18.049Z,33.85
2017-10-24T22:49:53.199Z,24.85
2017-10-24T22:52:27.668Z,26.70
2017-10-24T22:55:03.627Z,18.60
2017-10-24T22:57:38.126Z,22.17
2017-10-24T23:00:12.486Z,22.45
2017-10-24T23:02:46.957Z,19.48
2017-10-24T23:05:21.413Z,22.92
2017-10-24T23:07:56.545Z,19.83
2017-10-24T23:10:31.025Z,25.17
2017-10-24T23:13:07.337Z,16.75
2017-10-24T23:15:41.691Z,16.48
2017-10-24T23:18:16.195Z,23.48
2017-10-24T23:20:50.516Z,22.90
2017-10-24T23:23:25.060Z,14.68
2017-10-24T23:25:59.496Z,27.67
2017-10-24T23:28:33.829Z,16.80
2017-10-24T23:31:08.338Z,20.73
2017-10-24T23:33:43.588Z,16.92
2017-10-24T23:36:19.598Z,22.20
2017-10-24T23:38:54.060Z,26.62
2017-10-24T23:41:28.631Z,18.00
2017-10-24T23:44:02.966Z,27.27
2017-10-24T23:46:37.263Z,22.20
2017-10-24T23:49:11.716Z,17.45
2017-10-24T23:51:46.221Z,25.42
2017-10-24T23:54:20.784Z,29.83
2017-10-24T23:56:55.321Z,28.52
2017-10-24T23:59:29.680Z,24.77
